createdAt,value
2022-10-30T00:01:24.970Z,12.99
2022-10-30T00:03:51.835Z,13.00
2022-10-30T00:06:20.309Z,13.01
2022-10-30T00:11:31.958Z,12.99
2022-10-30T00:13:58.644Z,13.00
2022-10-30T00:16:26.139Z,13.00
2022-10-30T00:18:52.752Z,13.04
2022-10-30T00:24:07.093Z,13.03
2022-10-30T00:26:34.021Z,13.03
2022-10-30T00:29:00.563Z,13.00
2022-10-30T00:31:27.345Z,13.01
2022-10-30T00:36:39.603Z,13.03
2022-10-30T00:39:06.308Z,13.03
2022-10-30T00:41:33.162Z,13.03
2022-10-30T00:46:44.821Z,12.98
2022-10-30T00:49:19.279Z,12.99
2022-10-30T00:51:50.005Z,12.99
2022-10-30T00:57:10.741Z,13.00
2022-10-30T00:59:37.836Z,13.01
2022-10-30T01:02:06.872Z,13.02
2022-10-30T01:04:37.116Z,13.03
2022-10-30T01:07:12.581Z,13.03
2022-10-30T01:09:40.307Z,13.03
2022-10-30T01:12:07.329Z,13.05
2022-10-30T01:14:39.268Z,13.06
2022-10-30T01:17:27.695Z,13.06
2022-10-30T01:28:55.560Z,13.12
2022-10-30T01:31:58.623Z,13.11
2022-10-30T01:37:20.243Z,13.09
2022-10-30T01:39:47.080Z,13.11
2022-10-30T01:42:47.957Z,13.10
2022-10-30T01:45:42.220Z,13.09
2022-10-30T01:48:14.535Z,13.08
2022-10-30T01:50:49.019Z,13.08
2022-10-30T01:53:27.116Z,13.06
2022-10-30T01:59:07.537Z,13.05
2022-10-30T02:01:36.492Z,13.03
2022-10-30T02:09:22.255Z,13.03
2022-10-30T02:11:50.736Z,13.01
2022-10-30T02:14:31.308Z,13.00
2022-10-30T02:17:02.399Z,13.03
2022-10-30T02:19:29.040Z,13.04
2022-10-30T02:21:55.970Z,13.03
2022-10-30T02:24:22.536Z,13.03
2022-10-30T02:29:34.091Z,13.03
2022-10-30T02:32:01.134Z,13.02
2022-10-30T02:34:27.849Z,13.02
2022-10-30T02:36:54.564Z,13.00
2022-10-30T02:39:21.354Z,12.99
2022-10-30T02:41:48.546Z,12.98
2022-10-30T02:44:15.323Z,12.99
2022-10-30T02:46:42.328Z,12.97
2022-10-30T02:49:09.290Z,12.96
2022-10-30T02:51:36.379Z,12.94
2022-10-30T02:54:03.352Z,12.92
2022-10-30T02:56:29.971Z,12.92
2022-10-30T03:01:41.800Z,12.90
2022-10-30T03:04:09.075Z,12.88
2022-10-30T03:09:20.835Z,12.87
2022-10-30T03:11:47.499Z,12.86
2022-10-30T03:14:14.351Z,12.85
2022-10-30T03:16:41.070Z,12.84
2022-10-30T03:21:54.523Z,12.79
2022-10-30T03:24:21.130Z,12.77
2022-10-30T03:29:32.835Z,12.73
2022-10-30T03:31:59.491Z,12.72
2022-10-30T03:34:26.994Z,12.72
2022-10-30T03:36:53.780Z,12.72
2022-10-30T03:39:20.559Z,12.71
2022-10-30T03:41:47.173Z,12.69
2022-10-30T03:44:13.876Z,12.70
2022-10-30T03:46:40.484Z,12.69
2022-10-30T03:49:07.252Z,12.68
2022-10-30T03:51:33.911Z,12.72
2022-10-30T03:54:00.418Z,12.73
2022-10-30T03:56:26.979Z,12.72
2022-10-30T03:58:53.831Z,12.73
2022-10-30T04:01:20.553Z,12.73
2022-10-30T04:03:47.376Z,12.71
2022-10-30T04:06:14.089Z,12.70
2022-10-30T04:11:26.036Z,12.65
2022-10-30T04:13:52.916Z,12.66
2022-10-30T04:16:19.587Z,12.68
2022-10-30T04:21:30.870Z,12.68
2022-10-30T04:23:57.973Z,12.67
2022-10-30T04:26:24.463Z,12.68
2022-10-30T04:28:51.243Z,12.66
2022-10-30T04:31:17.942Z,12.66
2022-10-30T04:33:44.696Z,12.69
2022-10-30T04:38:56.250Z,12.72
2022-10-30T04:41:23.007Z,12.73
2022-10-30T04:43:50.024Z,12.75
2022-10-30T04:49:01.366Z,12.74
2022-10-30T04:51:28.172Z,12.76
2022-10-30T04:53:54.893Z,12.75
2022-10-30T04:56:21.696Z,12.74
2022-10-30T04:58:48.538Z,12.76
2022-10-30T05:01:15.340Z,12.78
2022-10-30T05:06:30.137Z,12.79
2022-10-30T05:08:57.372Z,12.79
2022-10-30T05:11:24.324Z,12.78
2022-10-30T05:13:51.002Z,12.79
2022-10-30T05:16:17.675Z,12.80
2022-10-30T05:18:44.292Z,12.80
2022-10-30T05:21:11.932Z,12.81
2022-10-30T05:23:38.682Z,12.80
2022-10-30T05:28:50.330Z,12.79
2022-10-30T05:31:17.103Z,12.77
2022-10-30T05:33:45.062Z,12.79
2022-10-30T05:36:14.077Z,12.80
2022-10-30T05:38:40.902Z,12.81
2022-10-30T05:41:07.656Z,12.83
2022-10-30T05:43:46.760Z,12.87
2022-10-30T05:46:13.320Z,12.87
2022-10-30T05:51:25.697Z,12.93
2022-10-30T05:53:52.672Z,12.95
2022-10-30T05:56:19.325Z,12.97
2022-10-30T06:01:36.240Z,12.98
2022-10-30T06:04:03.361Z,13.02
2022-10-30T06:06:30.000Z,13.06
2022-10-30T06:11:42.372Z,13.13
2022-10-30T06:14:09.396Z,13.17
2022-10-30T06:19:20.880Z,13.19
2022-10-30T06:21:47.955Z,13.23
2022-10-30T06:24:14.772Z,13.28
2022-10-30T06:26:41.912Z,13.32
2022-10-30T06:29:08.815Z,13.37
2022-10-30T06:31:35.479Z,13.41
2022-10-30T06:34:02.542Z,13.43
2022-10-30T06:39:14.707Z,13.52
2022-10-30T06:41:42.767Z,13.57
2022-10-30T06:44:09.561Z,13.61
2022-10-30T06:49:30.251Z,13.71
2022-10-30T06:51:59.849Z,13.77
2022-10-30T06:54:26.279Z,13.81
2022-10-30T06:56:53.406Z,13.83
2022-10-30T07:02:07.031Z,13.92
2022-10-30T07:04:35.416Z,13.96
2022-10-30T07:07:03.063Z,13.99
2022-10-30T07:09:29.860Z,14.05
2022-10-30T07:14:41.696Z,14.19
2022-10-30T07:17:08.657Z,14.25
2022-10-30T07:19:35.326Z,14.35
2022-10-30T07:22:02.024Z,14.43
2022-10-30T07:24:28.761Z,14.47
2022-10-30T07:26:56.179Z,14.55
2022-10-30T07:29:23.220Z,14.54
2022-10-30T07:32:02.152Z,14.55
2022-10-30T07:34:29.619Z,14.54
2022-10-30T07:36:56.494Z,14.57
2022-10-30T07:39:23.263Z,14.59
2022-10-30T07:41:50.439Z,14.62
2022-10-30T07:44:17.528Z,14.69
2022-10-30T07:46:44.876Z,14.77
2022-10-30T07:49:11.660Z,14.79
2022-10-30T07:51:38.855Z,14.78
2022-10-30T07:54:05.558Z,14.71
2022-10-30T07:56:32.098Z,14.75
2022-10-30T07:58:58.682Z,14.79
2022-10-30T08:01:25.438Z,14.84
2022-10-30T08:09:22.396Z,15.18
2022-10-30T08:14:34.476Z,15.25
2022-10-30T08:17:01.071Z,15.26
2022-10-30T08:22:13.643Z,15.61
2022-10-30T08:24:40.341Z,15.81
2022-10-30T08:27:06.936Z,16.04
2022-10-30T08:29:36.396Z,16.24
2022-10-30T08:34:48.359Z,16.41
2022-10-30T08:37:16.982Z,16.50
2022-10-30T08:39:43.888Z,16.58
2022-10-30T08:42:10.997Z,16.62
2022-10-30T08:44:37.550Z,16.62
2022-10-30T09:00:54.900Z,16.22
2022-10-30T09:03:25.571Z,16.17
2022-10-30T09:05:52.539Z,16.07
2022-10-30T09:08:19.385Z,15.96
2022-10-30T09:10:46.070Z,15.98
2022-10-30T09:13:12.994Z,16.00
2022-10-30T09:15:39.791Z,16.05
2022-10-30T09:18:06.800Z,16.17
2022-10-30T09:20:33.717Z,16.29
2022-10-30T09:23:00.916Z,16.41
2022-10-30T09:25:28.218Z,16.44
2022-10-30T09:27:55.177Z,16.41
2022-10-30T09:33:06.927Z,16.47
2022-10-30T09:38:18.755Z,16.28
2022-10-30T09:41:13.576Z,16.23
2022-10-30T09:44:21.979Z,16.21
2022-10-30T09:47:03.883Z,16.34
2022-10-30T09:50:13.794Z,16.55
2022-10-30T09:53:06.332Z,16.95
2022-10-30T09:55:58.916Z,17.22
2022-10-30T09:58:52.709Z,17.38
2022-10-30T10:01:45.458Z,17.82
2022-10-30T10:04:20.993Z,18.22
2022-10-30T10:06:58.337Z,18.77
2022-10-30T10:09:29.212Z,19.17
2022-10-30T10:15:00.313Z,21.43
2022-10-30T10:17:38.955Z,22.19
2022-10-30T10:20:13.546Z,22.30
2022-10-30T10:22:49.964Z,22.14
2022-10-30T10:25:30.333Z,21.84
2022-10-30T10:28:05.220Z,21.60
2022-10-30T10:30:55.756Z,22.16
2022-10-30T10:33:32.756Z,22.72
2022-10-30T10:36:06.056Z,22.73
2022-10-30T10:38:56.853Z,22.94
2022-10-30T10:41:29.855Z,23.61
2022-10-30T10:44:28.758Z,23.66
2022-10-30T10:53:54.696Z,21.25
2022-10-30T10:56:40.185Z,20.49
2022-10-30T10:59:18.766Z,19.78
2022-10-30T11:01:52.544Z,19.37
2022-10-30T11:04:38.946Z,19.36
2022-10-30T11:07:17.737Z,19.22
2022-10-30T11:09:52.676Z,19.48
2022-10-30T11:12:25.538Z,20.32
2022-10-30T11:14:52.172Z,21.38
2022-10-30T11:17:36.656Z,22.29
2022-10-30T11:20:18.312Z,23.28
2022-10-30T11:22:50.841Z,24.35
2022-10-30T11:25:28.590Z,25.10
2022-10-30T11:28:05.056Z,25.74
2022-10-30T11:33:23.216Z,25.31
2022-10-30T11:35:50.754Z,25.01
2022-10-30T11:38:20.846Z,25.55
2022-10-30T11:40:52.296Z,26.12
2022-10-30T11:43:25.596Z,26.67
2022-10-30T11:45:53.719Z,27.24
2022-10-30T11:48:30.319Z,27.70
2022-10-30T11:51:01.583Z,28.21
2022-10-30T11:53:49.775Z,28.37
2022-10-30T11:56:21.178Z,28.28
2022-10-30T11:58:52.819Z,28.16
2022-10-30T12:01:23.936Z,27.62
2022-10-30T12:03:52.956Z,28.20
2022-10-30T12:06:22.459Z,28.41
2022-10-30T12:09:09.800Z,29.01
2022-10-30T12:11:38.720Z,28.87
2022-10-30T12:14:06.217Z,27.69
2022-10-30T12:19:22.495Z,26.73
2022-10-30T12:21:56.567Z,27.01
2022-10-30T12:24:36.329Z,26.98
2022-10-30T12:27:05.736Z,26.99
2022-10-30T12:30:08.851Z,26.23
2022-10-30T12:32:52.219Z,25.53
2022-10-30T12:35:31.310Z,24.21
2022-10-30T12:38:01.969Z,23.47
2022-10-30T12:40:31.397Z,23.66
2022-10-30T12:43:05.001Z,24.30
2022-10-30T12:45:44.581Z,24.42
2022-10-30T12:48:27.558Z,23.72
2022-10-30T12:51:10.322Z,22.93
2022-10-30T12:53:47.055Z,22.07
2022-10-30T12:59:20.043Z,20.72
2022-10-30T13:02:05.468Z,20.30
2022-10-30T13:04:39.343Z,19.95
2022-10-30T13:07:20.911Z,19.56
2022-10-30T13:13:03.735Z,19.06
2022-10-30T13:15:35.472Z,19.04
2022-10-30T13:21:11.323Z,18.87
2022-10-30T13:24:22.667Z,18.58
2022-10-30T13:27:24.252Z,18.44
2022-10-30T13:30:16.702Z,18.25
2022-10-30T13:32:46.500Z,18.17
2022-10-30T13:35:26.746Z,17.91
2022-10-30T13:38:18.601Z,17.67
2022-10-30T13:40:54.527Z,17.56
2022-10-30T13:46:54.258Z,17.43
2022-10-30T13:49:33.313Z,17.38
2022-10-30T13:52:14.596Z,17.31
2022-10-30T13:55:06.996Z,17.23
2022-10-30T13:58:15.162Z,17.20
2022-10-30T14:01:06.133Z,17.16
2022-10-30T14:03:45.272Z,17.11
2022-10-30T14:06:48.806Z,17.04
2022-10-30T14:09:41.716Z,16.93
2022-10-30T14:12:45.883Z,16.83
2022-10-30T14:15:40.502Z,16.79
2022-10-30T14:18:13.088Z,16.74
2022-10-30T14:20:46.901Z,16.63
2022-10-30T14:23:19.998Z,16.53
2022-10-30T14:26:01.945Z,16.46
2022-10-30T14:28:39.054Z,16.36
2022-10-30T15:21:55.993Z,15.32
2022-10-30T15:24:32.118Z,15.28
2022-10-30T15:27:02.737Z,15.22
2022-10-30T15:29:35.451Z,15.20
2022-10-30T15:35:13.901Z,15.22
2022-10-30T15:38:03.491Z,15.21
2022-10-30T15:40:33.567Z,15.19
2022-10-30T15:43:04.587Z,15.14
2022-10-30T15:48:23.199Z,15.13
2022-10-30T15:51:04.429Z,15.12
2022-10-30T15:53:54.211Z,15.10
2022-10-30T15:56:32.832Z,15.10
2022-10-30T15:59:06.667Z,15.09
2022-10-30T16:04:36.941Z,15.05
2022-10-30T16:07:31.680Z,15.06
2022-10-30T16:10:03.590Z,15.09
2022-10-30T16:12:34.756Z,15.10
2022-10-30T16:18:12.778Z,15.06
2022-10-30T16:23:41.618Z,14.97
2022-10-30T16:29:27.210Z,14.90
2022-10-30T16:31:55.761Z,14.83
2022-10-30T16:34:42.641Z,14.80
2022-10-30T16:37:19.458Z,14.76
2022-10-30T16:39:51.172Z,14.71
2022-10-30T16:45:10.613Z,14.60
2022-10-30T16:47:43.426Z,14.57
2022-10-30T16:50:15.860Z,14.55
2022-10-30T16:52:44.794Z,14.50
2022-10-30T16:58:15.096Z,14.36
2022-10-30T17:01:09.865Z,14.29
2022-10-30T17:03:41.899Z,14.19
2022-10-30T17:06:35.900Z,14.13
2022-10-30T17:09:26.393Z,14.05
2022-10-30T17:12:15.636Z,13.99
2022-10-30T17:14:49.566Z,13.95
2022-10-30T17:17:44.096Z,13.91
2022-10-30T17:20:22.848Z,13.87
2022-10-30T17:23:07.722Z,13.84
2022-10-30T17:25:56.278Z,13.82
2022-10-30T17:28:44.785Z,13.76
2022-10-30T17:31:19.279Z,13.73
2022-10-30T17:34:06.878Z,13.68
2022-10-30T17:36:34.909Z,13.64
2022-10-30T17:41:49.814Z,13.56
2022-10-30T17:44:21.516Z,13.50
2022-10-30T17:46:52.279Z,13.44
2022-10-30T17:49:28.795Z,13.42
2022-10-30T17:51:57.840Z,13.37
2022-10-30T17:57:32.659Z,13.28
2022-10-30T18:00:00.988Z,13.21
2022-10-30T18:02:29.128Z,13.17
2022-10-30T18:05:00.253Z,13.11
2022-10-30T18:07:28.889Z,13.06
2022-10-30T18:09:58.353Z,13.01
2022-10-30T18:15:26.156Z,12.90
2022-10-30T18:17:54.494Z,12.85
2022-10-30T18:20:24.173Z,12.82
2022-10-30T18:22:53.692Z,12.80
2022-10-30T18:25:24.678Z,12.81
2022-10-30T18:27:53.637Z,12.79
2022-10-30T18:30:21.850Z,12.79
2022-10-30T18:32:50.671Z,12.79
2022-10-30T18:35:29.726Z,12.78
2022-10-30T18:37:58.678Z,12.75
2022-10-30T18:40:26.757Z,12.73
2022-10-30T18:45:42.115Z,12.72
2022-10-30T18:48:11.606Z,12.70
2022-10-30T18:50:39.965Z,12.69
2022-10-30T18:53:15.924Z,12.68
2022-10-30T18:55:44.804Z,12.65
2022-10-30T18:58:13.336Z,12.62
2022-10-30T19:01:09.943Z,12.60
2022-10-30T19:03:30.449Z,12.57
2022-10-30T19:05:58.958Z,12.55
2022-10-30T19:16:46.538Z,12.46
2022-10-30T19:19:15.279Z,12.45
2022-10-30T19:21:46.416Z,12.42
2022-10-30T19:24:15.682Z,12.43
2022-10-30T19:26:44.013Z,12.45
2022-10-30T19:29:12.251Z,12.45
2022-10-30T19:31:40.337Z,12.46
2022-10-30T19:34:08.682Z,12.43
2022-10-30T19:36:37.462Z,12.42
2022-10-30T19:39:17.059Z,12.42
2022-10-30T19:41:46.083Z,12.40
2022-10-30T19:47:01.916Z,12.35
2022-10-30T19:49:32.903Z,12.34
2022-10-30T19:52:01.357Z,12.28
2022-10-30T19:54:29.692Z,12.22
2022-10-30T19:59:44.264Z,12.13
2022-10-30T20:04:58.746Z,12.00
2022-10-30T20:07:27.156Z,11.98
2022-10-30T20:09:55.317Z,11.94
2022-10-30T20:12:23.603Z,11.91
2022-10-30T20:14:51.709Z,11.88
2022-10-30T20:17:19.966Z,11.84
2022-10-30T20:19:48.192Z,11.82
2022-10-30T20:22:16.340Z,11.78
2022-10-30T20:24:44.673Z,11.74
2022-10-30T20:27:13.377Z,11.69
2022-10-30T20:29:43.836Z,11.64
2022-10-30T20:32:12.063Z,11.56
2022-10-30T20:37:26.112Z,11.47
2022-10-30T20:39:54.434Z,11.42
2022-10-30T20:42:24.298Z,11.37
2022-10-30T20:44:52.899Z,11.33
2022-10-30T20:47:21.065Z,11.29
2022-10-30T20:49:49.226Z,11.24
2022-10-30T20:52:17.394Z,11.17
2022-10-30T20:57:31.715Z,11.08
2022-10-30T20:59:59.987Z,11.02
2022-10-30T21:02:28.792Z,11.01
2022-10-30T21:07:43.156Z,10.98
2022-10-30T21:10:11.321Z,10.92
2022-10-30T21:12:39.690Z,10.88
2022-10-30T21:15:08.086Z,10.84
2022-10-30T21:17:36.531Z,10.81
2022-10-30T21:20:05.109Z,10.75
2022-10-30T21:22:33.558Z,10.71
2022-10-30T21:30:33.626Z,10.59
2022-10-30T21:33:02.194Z,10.55
2022-10-30T21:38:17.327Z,10.47
2022-10-30T21:40:54.252Z,10.43
2022-10-30T21:43:22.623Z,10.39
2022-10-30T21:45:50.816Z,10.38
2022-10-30T21:48:19.710Z,10.36
2022-10-30T21:50:47.899Z,10.36
2022-10-30T21:53:16.146Z,10.31
2022-10-30T21:55:44.437Z,10.28
2022-10-30T21:58:12.483Z,10.26
2022-10-30T22:00:40.944Z,10.24
2022-10-30T22:03:11.220Z,10.21
2022-10-30T22:05:39.389Z,10.19
2022-10-30T22:08:07.767Z,10.15
2022-10-30T22:10:35.941Z,10.12
2022-10-30T22:13:04.064Z,10.10
2022-10-30T22:18:18.269Z,10.03
2022-10-30T22:20:46.296Z,10.00
2022-10-30T22:23:14.464Z,9.99
2022-10-30T22:25:42.677Z,9.96
2022-10-30T22:31:02.226Z,9.92
2022-10-30T22:33:31.859Z,9.89
2022-10-30T22:39:01.881Z,9.78
2022-10-30T22:41:34.585Z,9.74
2022-10-30T22:46:53.933Z,9.67
2022-10-30T22:52:07.889Z,9.64
2022-10-30T22:54:35.966Z,9.64
2022-10-30T22:57:04.020Z,9.62
2022-10-30T22:59:32.070Z,9.59
2022-10-30T23:02:00.561Z,9.58
2022-10-30T23:04:29.036Z,9.55
2022-10-30T23:06:57.241Z,9.54
2022-10-30T23:09:25.491Z,9.52
2022-10-30T23:11:53.479Z,9.50
2022-10-30T23:14:21.722Z,9.44
2022-10-30T23:16:49.720Z,9.40
2022-10-30T23:19:17.898Z,9.38
2022-10-30T23:21:46.021Z,9.35
2022-10-30T23:24:14.708Z,9.32
2022-10-30T23:26:42.855Z,9.31
2022-10-30T23:29:11.135Z,9.28
2022-10-30T23:31:41.500Z,9.23
2022-10-30T23:34:14.112Z,9.21
2022-10-30T23:36:45.245Z,9.19
2022-10-30T23:39:16.833Z,9.14
2022-10-30T23:41:45.614Z,9.10
2022-10-30T23:44:15.641Z,9.10
2022-10-30T23:46:43.998Z,9.10
2022-10-30T23:49:12.376Z,9.09
2022-10-30T23:51:40.640Z,9.08
2022-10-30T23:54:09.140Z,9.09
2022-10-30T23:56:37.259Z,9.10
2022-10-30T23:59:05.499Z,9.11
